Time;durP1;ratioP1;P1;durP2;ratioP2;P2;SDS_P1;SDS_P2;PMS_P1;PMS_P2;Temp;Humidity;BMP_temperature;BMP_pressure;BME280_temperature;BME280_humidity;BME280_pressure;Samples;Min_cycle;Max_cycle;Signal;HPM_P1;HPM_P2
2022/10/01 00:02:03;;;;;;;5.73;3.77;;;12.10;99.90;;;;;;5032904;28;20217;-54
2022/10/01 00:04:29;;;;;;;4.60;3.63;;;12.10;1.00;;;;;;5032861;28;20253;-56
2022/10/01 00:06:58;;;;;;;4.83;3.83;;;12.10;1.00;;;;;;5032539;28;20764;-52
2022/10/01 00:09:25;;;;;;;4.23;3.50;;;12.10;79.20;;;;;;5033114;28;20209;-56
2022/10/01 00:11:53;;;;;;;5.43;3.80;;;12.10;1.00;;;;;;5032991;28;20208;-57
2022/10/01 00:14:19;;;;;;;5.90;3.80;;;12.10;79.20;;;;;;5032906;28;20206;-56
2022/10/01 00:16:46;;;;;;;5.50;3.53;;;12.10;1.00;;;;;;5032683;28;20613;-53
2022/10/01 00:19:13;;;;;;;5.33;3.70;;;12.10;99.90;;;;;;5032915;28;20251;-53
2022/10/01 00:21:40;;;;;;;9.40;4.03;;;12.10;99.90;;;;;;5032772;28;20305;-54
2022/10/01 00:24:07;;;;;;;5.07;3.80;;;12.10;99.90;;;;;;5032776;28;20324;-53
2022/10/01 00:26:36;;;;;;;5.23;3.57;;;12.10;79.30;;;;;;5032424;28;20218;-51
2022/10/01 00:29:11;;;;;;;5.23;4.07;;;12.10;99.90;;;;;;5032506;28;20213;-50
2022/10/01 00:31:38;;;;;;;5.90;3.77;;;12.10;99.90;;;;;;5032658;28;20216;-54
2022/10/01 00:34:05;;;;;;;4.40;3.50;;;12.10;79.20;;;;;;5032463;28;20628;-55
2022/10/01 00:36:32;;;;;;;5.73;3.30;;;12.10;99.90;;;;;;5032474;28;20210;-53
2022/10/01 00:39:00;;;;;;;6.73;4.20;;;12.10;99.90;;;;;;5032231;28;20293;-53
2022/10/01 00:41:28;;;;;;;4.83;4.00;;;12.10;1.00;;;;;;5032155;28;20205;-51
2022/10/01 00:43:57;;;;;;;6.67;4.10;;;12.00;1.00;;;;;;5032755;28;20280;-56
2022/10/01 00:46:33;;;;;;;5.57;3.77;;;11.90;99.90;;;;;;5032364;28;20218;-56
2022/10/01 00:49:05;;;;;;;5.03;3.70;;;11.80;99.90;;;;;;5032118;28;20205;-56
2022/10/01 00:51:37;;;;;;;5.20;4.10;;;11.70;1.00;;;;;;5032108;28;20673;-55
2022/10/01 00:54:09;;;;;;;8.27;4.30;;;11.50;1.00;;;;;;5031991;28;20206;-52
2022/10/01 00:56:37;;;;;;;11.80;4.93;;;11.40;32.90;;;;;;5031659;28;20202;-57
2022/10/01 00:59:04;;;;;;;5.17;4.33;;;11.20;82.00;;;;;;5032381;28;20210;-52
2022/10/01 01:01:35;;;;;;;6.27;4.80;;;11.20;94.70;;;;;;5032561;28;20287;-56
2022/10/01 01:04:02;;;;;;;6.53;5.07;;;11.10;99.90;;;;;;5032015;28;20260;-56
2022/10/01 01:06:29;;;;;;;7.90;5.37;;;11.00;99.90;;;;;;5032072;28;20210;-57
2022/10/01 01:08:56;;;;;;;12.53;5.10;;;10.80;99.90;;;;;;5031950;28;20284;-57
2022/10/01 01:11:31;;;;;;;7.50;4.90;;;10.80;99.90;;;;;;5031676;28;20241;-56
2022/10/01 01:14:05;;;;;;;7.90;5.20;;;10.70;99.90;;;;;;5031715;28;20641;-54
2022/10/01 01:16:37;;;;;;;6.27;5.23;;;10.60;99.90;;;;;;5031894;28;20191;-57
2022/10/01 01:19:11;;;;;;;5.57;4.83;;;10.50;99.90;;;;;;5032192;28;20198;-56
2022/10/01 01:21:43;;;;;;;7.43;5.43;;;10.50;99.90;;;;;;5031610;28;20706;-56
2022/10/01 01:24:31;;;;;;;6.60;5.40;;;10.50;99.90;;;;;;5031923;28;20275;-54
2022/10/01 01:27:08;;;;;;;8.13;6.10;;;10.50;99.90;;;;;;5031631;28;20222;-54
2022/10/01 01:29:42;;;;;;;7.97;5.97;;;10.50;99.90;;;;;;5031997;28;20245;-55
2022/10/01 01:32:14;;;;;;;11.80;6.00;;;10.40;99.90;;;;;;5031621;28;20243;-56
2022/10/01 01:34:45;;;;;;;6.70;5.40;;;10.30;99.90;;;;;;5031959;28;20260;-56
2022/10/01 01:37:16;;;;;;;9.33;5.80;;;10.30;99.90;;;;;;5031881;28;20230;-54
2022/10/01 01:39:47;;;;;;;6.17;5.27;;;10.30;99.90;;;;;;5031743;28;20301;-56
2022/10/01 01:42:20;;;;;;;7.70;6.20;;;10.20;99.90;;;;;;5031823;28;20233;-55
2022/10/01 01:44:52;;;;;;;7.73;5.60;;;10.20;99.90;;;;;;5031443;28;20222;-53
2022/10/01 01:47:21;;;;;;;8.83;5.47;;;10.20;99.90;;;;;;5031510;28;20287;-55
2022/10/01 01:49:49;;;;;;;6.07;5.23;;;10.20;99.90;;;;;;5031796;28;20291;-55
2022/10/01 01:52:17;;;;;;;8.97;6.17;;;10.20;99.90;;;;;;5031563;28;20212;-56
2022/10/01 01:54:48;;;;;;;7.17;4.57;;;10.20;99.90;;;;;;5031543;28;20706;-52
2022/10/01 01:57:16;;;;;;;6.57;5.60;;;10.20;99.90;;;;;;5031436;28;20233;-54
2022/10/01 01:59:43;;;;;;;13.23;5.60;;;10.20;99.90;;;;;;5032765;28;20264;-51
2022/10/01 02:02:13;;;;;;;6.73;5.53;;;10.20;99.90;;;;;;5035491;28;20252;-53
2022/10/01 02:04:44;;;;;;;6.57;5.47;;;10.20;99.90;;;;;;5035500;28;20233;-56
2022/10/01 02:07:41;;;;;;;9.00;5.73;;;10.20;99.90;;;;;;5035074;28;20250;-57
2022/10/01 02:10:18;;;;;;;7.67;6.20;;;10.10;99.90;;;;;;5024975;28;20352;-53
2022/10/01 02:13:02;;;;;;;10.20;5.47;;;10.20;99.90;;;;;;5035663;28;20236;-57
2022/10/01 02:15:37;;;;;;;7.77;6.03;;;10.10;99.90;;;;;;5035891;28;20187;-57
2022/10/01 02:18:12;;;;;;;7.17;5.10;;;10.10;99.90;;;;;;5035014;28;20221;-54
2022/10/01 02:20:44;;;;;;;8.00;5.20;;;10.10;99.90;;;;;;5034893;28;20260;-57
2022/10/01 02:23:15;;;;;;;6.87;5.43;;;10.10;99.90;;;;;;5034938;28;20214;-56
2022/10/01 02:25:45;;;;;;;9.27;5.30;;;10.10;99.90;;;;;;5035074;28;20264;-56
2022/10/01 02:28:16;;;;;;;5.73;4.97;;;10.10;99.90;;;;;;5034636;28;20230;-57
2022/10/01 02:30:43;;;;;;;6.47;4.73;;;10.10;99.90;;;;;;5035035;28;20869;-56
2022/10/01 02:33:14;;;;;;;6.70;5.10;;;10.20;99.90;;;;;;5034957;28;20210;-49
2022/10/01 02:35:42;;;;;;;7.30;4.93;;;10.10;99.90;;;;;;5035129;28;20241;-54
2022/10/01 02:38:10;;;;;;;6.97;5.33;;;10.10;99.90;;;;;;5034368;28;20230;-52
2022/10/01 02:40:42;;;;;;;5.97;4.63;;;10.10;99.90;;;;;;5034886;28;20215;-50
2022/10/01 02:43:13;;;;;;;7.23;4.00;;;10.10;99.90;;;;;;5034495;28;20727;-51
2022/10/01 02:45:41;;;;;;;6.27;5.40;;;10.10;99.90;;;;;;5034373;28;20283;-54
2022/10/01 02:48:10;;;;;;;7.43;5.67;;;10.00;99.90;;;;;;5034435;28;20227;-51
2022/10/01 02:50:44;;;;;;;6.73;4.80;;;10.00;99.90;;;;;;5034307;28;20236;-56
2022/10/01 02:53:17;;;;;;;6.97;5.47;;;10.00;99.90;;;;;;5034380;28;20623;-52
2022/10/01 02:55:46;;;;;;;7.20;5.53;;;10.00;99.90;;;;;;5034585;28;20558;-52
2022/10/01 02:58:12;;;;;;;9.17;5.43;;;10.00;99.90;;;;;;5034307;28;20256;-55
2022/10/01 03:00:38;;;;;;;8.00;5.20;;;10.00;99.90;;;;;;5034419;28;20205;-49
2022/10/01 03:03:05;;;;;;;5.83;4.60;;;10.00;99.90;;;;;;5033817;28;20214;-51
2022/10/01 03:05:32;;;;;;;6.53;4.73;;;10.00;99.90;;;;;;5034364;28;20222;-55
2022/10/01 03:08:00;;;;;;;5.50;4.83;;;10.00;99.90;;;;;;5033782;28;20230;-49
2022/10/01 03:10:27;;;;;;;7.37;5.43;;;10.00;99.90;;;;;;5033781;28;20210;-56
2022/10/01 03:12:54;;;;;;;6.10;4.80;;;9.90;99.90;;;;;;5034203;28;20202;-56
2022/10/01 03:15:21;;;;;;;5.63;5.03;;;9.90;99.90;;;;;;5033880;28;20666;-55
2022/10/01 03:17:51;;;;;;;6.93;5.30;;;9.90;99.90;;;;;;5033696;28;20231;-54
2022/10/01 03:20:18;;;;;;;6.57;5.53;;;9.90;99.90;;;;;;5033893;28;20206;-56
2022/10/01 03:22:46;;;;;;;8.20;5.60;;;9.90;99.90;;;;;;5033970;28;20276;-53
2022/10/01 03:25:14;;;;;;;10.30;5.60;;;9.90;99.90;;;;;;5033832;28;20226;-53
2022/10/01 03:27:41;;;;;;;6.57;5.13;;;9.90;99.90;;;;;;5033642;28;20238;-53
2022/10/01 03:30:08;;;;;;;7.20;5.47;;;9.90;99.90;;;;;;5034036;28;20217;-52
2022/10/01 03:32:35;;;;;;;6.07;5.27;;;9.90;99.90;;;;;;5033584;28;20214;-51
2022/10/01 03:35:02;;;;;;;6.77;5.80;;;9.90;99.90;;;;;;5033567;28;20206;-55
2022/10/01 03:37:28;;;;;;;7.00;5.80;;;9.90;99.90;;;;;;5033473;28;20384;-54
2022/10/01 03:39:55;;;;;;;5.73;5.13;;;9.90;99.90;;;;;;5033220;28;20259;-53
2022/10/01 03:42:23;;;;;;;6.47;5.63;;;9.90;99.90;;;;;;5033424;28;20672;-54
2022/10/01 03:44:49;;;;;;;5.97;5.03;;;9.90;99.90;;;;;;5033136;28;20230;-52
2022/10/01 03:47:16;;;;;;;8.30;5.20;;;9.90;99.90;;;;;;5033037;28;20272;-51
2022/10/01 03:49:43;;;;;;;7.70;4.90;;;10.00;99.90;;;;;;5033226;28;20202;-53
2022/10/01 03:52:09;;;;;;;6.80;5.13;;;9.90;99.90;;;;;;5033453;28;20206;-53
2022/10/01 03:54:37;;;;;;;5.73;4.27;;;9.90;99.90;;;;;;5033461;28;20619;-56
2022/10/01 03:57:04;;;;;;;6.90;5.00;;;9.90;99.90;;;;;;5033107;28;20237;-54
2022/10/01 03:59:32;;;;;;;4.13;3.73;;;9.90;99.90;;;;;;5033417;28;20638;-56
2022/10/01 04:01:59;;;;;;;5.93;4.40;;;9.90;99.90;;;;;;5033114;28;20214;-57
2022/10/01 04:04:27;;;;;;;5.07;3.93;;;9.90;99.90;;;;;;5032663;28;20715;-55
2022/10/01 04:06:54;;;;;;;6.43;4.50;;;9.90;99.90;;;;;;5033147;28;20245;-49
2022/10/01 04:09:21;;;;;;;4.70;3.87;;;9.90;99.90;;;;;;5033110;28;20266;-53
2022/10/01 04:11:47;;;;;;;4.90;4.33;;;9.90;99.90;;;;;;5032982;28;20267;-57
2022/10/01 04:14:14;;;;;;;5.67;3.60;;;9.90;99.90;;;;;;5032792;28;20207;-52
2022/10/01 04:16:43;;;;;;;5.37;4.00;;;9.90;99.90;;;;;;5032641;28;20240;-54
2022/10/01 04:19:09;;;;;;;4.13;3.20;;;9.90;99.90;;;;;;5032556;28;20815;-54
2022/10/01 04:21:37;;;;;;;4.13;3.20;;;9.90;99.90;;;;;;5032665;28;20256;-50
2022/10/01 04:24:04;;;;;;;4.70;3.07;;;10.00;99.90;;;;;;5032454;28;20206;-53
2022/10/01 04:26:31;;;;;;;3.10;2.80;;;10.00;99.90;;;;;;5032591;28;20631;-51
2022/10/01 04:28:57;;;;;;;3.50;2.67;;;10.00;99.90;;;;;;5032466;28;20273;-51
2022/10/01 04:31:24;;;;;;;2.60;2.40;;;10.10;99.90;;;;;;5032425;28;20725;-56
2022/10/01 04:33:53;;;;;;;4.47;2.80;;;10.10;99.90;;;;;;5032588;28;20264;-54
2022/10/01 04:36:20;;;;;;;3.10;2.80;;;10.10;99.90;;;;;;5032323;28;20659;-56
2022/10/01 04:38:50;;;;;;;3.00;2.70;;;10.10;99.90;;;;;;5032364;28;20230;-55
2022/10/01 04:41:16;;;;;;;4.90;2.67;;;10.20;99.90;;;;;;5032171;28;20202;-53
2022/10/01 04:43:43;;;;;;;3.03;2.73;;;10.20;99.90;;;;;;5032239;28;20335;-57
2022/10/01 04:46:10;;;;;;;4.23;2.57;;;10.20;99.90;;;;;;5031697;28;20595;-54
2022/10/01 04:48:36;;;;;;;2.93;2.50;;;10.20;99.90;;;;;;5032195;28;20230;-56
2022/10/01 04:51:04;;;;;;;2.97;2.27;;;10.20;99.90;;;;;;5032361;28;20214;-53
2022/10/01 04:53:31;;;;;;;2.53;2.10;;;10.20;99.90;;;;;;5032268;28;20206;-55
2022/10/01 04:55:57;;;;;;;2.50;2.30;;;10.30;99.90;;;;;;5031971;28;20630;-55
2022/10/01 04:58:25;;;;;;;2.30;2.10;;;10.30;99.90;;;;;;5031998;28;20709;-55
2022/10/01 05:00:52;;;;;;;2.47;2.13;;;10.40;99.90;;;;;;5032121;28;20217;-52
2022/10/01 05:03:19;;;;;;;2.23;2.03;;;10.40;99.90;;;;;;5032162;28;20210;-54
2022/10/01 05:05:45;;;;;;;2.20;2.00;;;10.40;99.90;;;;;;5031946;28;20300;-51
2022/10/01 05:08:13;;;;;;;2.17;1.77;;;10.40;99.90;;;;;;5031770;28;20222;-52
2022/10/01 05:10:40;;;;;;;2.17;1.97;;;10.40;99.90;;;;;;5031872;28;20211;-54
2022/10/01 05:13:06;;;;;;;2.13;1.93;;;10.40;99.90;;;;;;5031954;28;20256;-53
2022/10/01 05:15:34;;;;;;;2.57;2.00;;;10.50;99.90;;;;;;5032012;28;20327;-56
2022/10/01 05:18:01;;;;;;;2.03;1.83;;;10.50;99.90;;;;;;5031760;28;20234;-54
2022/10/01 05:20:28;;;;;;;2.10;1.90;;;10.50;99.90;;;;;;5031726;28;20264;-55
2022/10/01 05:22:55;;;;;;;3.97;2.10;;;10.50;99.90;;;;;;5031933;28;20228;-53
2022/10/01 05:25:23;;;;;;;2.20;2.00;;;10.50;99.90;;;;;;5031599;28;20226;-54
2022/10/01 05:27:50;;;;;;;5.37;2.03;;;10.50;99.90;;;;;;5031543;28;20237;-57
2022/10/01 05:30:22;;;;;;;2.67;1.83;;;10.60;99.90;;;;;;5031897;28;20210;-55
2022/10/01 05:32:55;;;;;;;3.87;2.23;;;10.60;99.90;;;;;;5031766;28;20284;-53
2022/10/01 05:35:21;;;;;;;5.40;1.80;;;10.60;99.90;;;;;;5035608;28;20208;-56
2022/10/01 05:37:51;;;;;;;1.80;1.70;;;10.60;99.90;;;;;;5035467;28;20230;-55
2022/10/01 05:40:18;;;;;;;2.00;1.80;;;10.60;99.90;;;;;;5035420;28;20287;-57
2022/10/01 05:42:47;;;;;;;1.70;1.60;;;10.60;99.90;;;;;;5036246;28;20256;-55
2022/10/01 05:45:14;;;;;;;1.73;1.63;;;10.60;99.90;;;;;;5035406;28;20664;-55
2022/10/01 05:47:41;;;;;;;1.57;1.47;;;10.60;99.90;;;;;;5035288;28;20780;-53
2022/10/01 05:50:08;;;;;;;1.90;1.60;;;10.60;99.90;;;;;;5035600;28;20212;-54
2022/10/01 05:52:35;;;;;;;1.57;1.47;;;10.60;99.90;;;;;;5035237;28;20632;-57
2022/10/01 05:55:02;;;;;;;3.03;1.60;;;10.60;99.90;;;;;;5035223;28;20229;-54
2022/10/01 05:57:30;;;;;;;1.80;1.60;;;10.60;99.90;;;;;;5035324;28;20230;-53
2022/10/01 05:59:57;;;;;;;2.03;1.43;;;10.60;99.90;;;;;;5035420;28;20296;-56
2022/10/01 06:02:24;;;;;;;2.20;1.37;;;10.60;99.90;;;;;;5035261;28;20206;-55
2022/10/01 06:04:51;;;;;;;1.67;1.07;;;10.60;99.90;;;;;;5035249;28;20264;-57
2022/10/01 06:07:17;;;;;;;2.00;1.33;;;10.60;99.90;;;;;;5034700;28;20284;-55
2022/10/01 06:09:44;;;;;;;1.43;1.23;;;10.60;99.90;;;;;;5035248;28;20663;-54
2022/10/01 06:12:11;;;;;;;1.47;1.33;;;10.60;99.90;;;;;;5035321;28;20241;-53
2022/10/01 06:14:37;;;;;;;2.87;1.50;;;10.60;99.90;;;;;;5035060;28;20213;-55
2022/10/01 06:17:05;;;;;;;1.87;1.43;;;10.60;99.90;;;;;;5034910;28;20237;-55
2022/10/01 06:19:32;;;;;;;1.40;1.27;;;10.60;99.90;;;;;;5034871;28;20203;-56
2022/10/01 06:21:58;;;;;;;2.70;1.47;;;10.60;99.90;;;;;;5034521;28;20557;-56
2022/10/01 06:24:25;;;;;;;2.50;1.40;;;10.60;99.90;;;;;;5034956;28;20257;-55
2022/10/01 06:26:52;;;;;;;1.40;1.30;;;10.60;99.90;;;;;;5034542;28;20242;-51
2022/10/01 06:29:19;;;;;;;1.30;1.20;;;10.60;99.90;;;;;;5035032;28;20203;-53
2022/10/01 06:31:46;;;;;;;1.90;1.60;;;10.60;99.90;;;;;;5034832;28;20210;-56
2022/10/01 06:34:14;;;;;;;1.30;1.20;;;10.60;99.90;;;;;;5034488;28;20202;-54
2022/10/01 06:36:40;;;;;;;1.23;1.10;;;10.60;99.90;;;;;;5034418;28;20207;-55
2022/10/01 06:39:07;;;;;;;1.80;1.20;;;10.60;99.90;;;;;;5034671;28;20214;-53
2022/10/01 06:41:34;;;;;;;1.30;1.20;;;10.60;99.90;;;;;;5034680;28;20214;-53
2022/10/01 06:44:01;;;;;;;1.23;1.13;;;10.60;99.90;;;;;;5034620;28;20217;-51
2022/10/01 06:46:28;;;;;;;1.37;1.27;;;10.60;99.90;;;;;;5033233;28;20578;-55
2022/10/01 06:48:54;;;;;;;1.53;1.40;;;10.60;99.90;;;;;;5034138;28;20226;-48
2022/10/01 06:52:47;;;;;;;1.27;1.17;;;10.60;99.90;;;;;;5034334;28;20831;-49
2022/10/01 06:54:09;;;;;;;2.60;1.27;;;10.60;99.90;;;;;;5034219;28;20212;-51
2022/10/01 06:56:36;;;;;;;3.50;1.23;;;10.70;99.90;;;;;;5034117;28;20209;-55
2022/10/01 06:59:03;;;;;;;1.57;1.47;;;10.70;99.90;;;;;;5034431;28;20560;-48
2022/10/01 07:01:31;;;;;;;2.27;1.63;;;10.70;99.90;;;;;;5033915;28;20206;-53
2022/10/01 07:03:58;;;;;;;1.90;1.53;;;10.70;99.90;;;;;;5034350;28;20285;-54
2022/10/01 07:06:26;;;;;;;2.10;1.90;;;10.80;99.90;;;;;;5033855;28;20234;-49
2022/10/01 07:08:52;;;;;;;2.10;1.90;;;10.80;99.90;;;;;;5034363;28;20230;-57
2022/10/01 07:11:19;;;;;;;5.73;2.20;;;10.80;99.90;;;;;;5036745;28;20241;-55
2022/10/01 07:13:46;;;;;;;2.60;2.40;;;10.80;99.90;;;;;;5036767;28;20233;-57
2022/10/01 07:16:12;;;;;;;3.13;2.90;;;10.80;99.90;;;;;;5033947;28;20260;-54
2022/10/01 07:18:39;;;;;;;3.77;3.30;;;10.80;99.90;;;;;;5033970;28;20257;-55
2022/10/01 07:21:06;;;;;;;3.40;3.10;;;10.80;99.90;;;;;;5033637;28;20202;-56
2022/10/01 07:23:34;;;;;;;4.17;3.70;;;10.90;99.90;;;;;;5034038;28;20206;-53
2022/10/01 07:26:03;;;;;;;4.77;3.77;;;10.90;99.90;;;;;;5033440;28;20226;-51
2022/10/01 07:28:30;;;;;;;3.87;3.17;;;10.90;99.90;;;;;;5033626;28;20230;-48
2022/10/01 07:31:00;;;;;;;4.27;3.77;;;10.90;99.90;;;;;;5033616;28;20633;-57
2022/10/01 07:33:27;;;;;;;5.13;3.77;;;10.90;99.90;;;;;;5033648;28;20206;-54
2022/10/01 07:35:53;;;;;;;4.13;3.57;;;11.00;99.90;;;;;;5033342;28;20206;-56
2022/10/01 07:38:20;;;;;;;4.60;4.03;;;11.00;99.90;;;;;;5033499;28;20721;-53
2022/10/01 07:40:53;;;;;;;4.73;3.43;;;11.00;99.90;;;;;;5033321;28;20206;-55
2022/10/01 07:43:20;;;;;;;4.47;3.10;;;11.10;99.90;;;;;;5033341;28;20661;-48
2022/10/01 07:45:48;;;;;;;3.67;3.33;;;11.00;99.90;;;;;;5032891;28;20233;-52
2022/10/01 07:48:15;;;;;;;4.23;3.70;;;11.10;99.90;;;;;;5032870;28;20232;-53
2022/10/01 07:50:43;;;;;;;3.80;3.50;;;11.10;99.90;;;;;;5033204;28;20264;-51
2022/10/01 07:53:11;;;;;;;3.77;3.33;;;11.10;99.90;;;;;;5033268;28;20229;-49
2022/10/01 07:55:37;;;;;;;4.67;3.63;;;11.20;99.90;;;;;;5032983;28;20206;-52
2022/10/01 07:58:06;;;;;;;3.87;3.50;;;11.20;99.90;;;;;;5032090;28;20279;-53
2022/10/01 08:00:33;;;;;;;5.20;3.50;;;11.30;99.90;;;;;;5033049;28;20635;-51
2022/10/01 08:03:00;;;;;;;5.13;3.63;;;11.30;99.90;;;;;;5033086;28;20206;-51
2022/10/01 08:05:28;;;;;;;3.53;3.20;;;11.40;99.90;;;;;;5032847;28;20206;-58
2022/10/01 08:07:58;;;;;;;4.93;3.00;;;11.50;99.90;;;;;;5032392;28;20605;-55
2022/10/01 08:10:25;;;;;;;4.20;2.53;;;11.50;99.90;;;;;;5033036;28;20618;-55
2022/10/01 08:12:52;;;;;;;3.50;2.23;;;11.60;99.90;;;;;;5032911;28;20207;-54
2022/10/01 08:15:20;;;;;;;2.43;2.07;;;11.80;99.90;;;;;;5032876;28;20262;-56
2022/10/01 08:17:46;;;;;;;2.43;2.23;;;11.80;99.90;;;;;;5032555;28;20226;-55
2022/10/01 08:20:15;;;;;;;4.80;2.73;;;11.80;99.90;;;;;;5032868;28;20277;-53
2022/10/01 08:22:41;;;;;;;2.87;2.37;;;11.90;99.90;;;;;;5032614;28;20217;-55
2022/10/01 08:25:08;;;;;;;2.27;2.00;;;11.90;99.90;;;;;;5032806;28;20202;-57
2022/10/01 08:27:35;;;;;;;3.03;2.03;;;12.00;99.90;;;;;;5032647;28;20234;-58
2022/10/01 08:30:01;;;;;;;2.60;2.30;;;12.00;99.90;;;;;;5023225;28;20217;-58
2022/10/01 08:32:30;;;;;;;2.40;2.20;;;12.10;99.90;;;;;;5031290;28;20206;-60
2022/10/01 08:34:58;;;;;;;4.90;2.10;;;12.20;99.90;;;;;;5032433;28;20255;-60
2022/10/01 08:37:26;;;;;;;3.17;1.97;;;12.30;99.90;;;;;;5031885;28;20229;-60
2022/10/01 08:39:54;;;;;;;2.60;2.27;;;12.50;99.90;;;;;;5032501;28;20577;-59
2022/10/01 08:42:37;;;;;;;3.20;1.80;;;12.70;99.90;;;;;;5031927;28;20213;-63
2022/10/01 08:45:09;;;;;;;4.13;2.53;;;12.80;99.90;;;;;;5031764;28;20363;-65
2022/10/01 08:47:44;;;;;;;2.13;1.83;;;12.80;99.90;;;;;;5031785;28;20234;-63
2022/10/01 08:50:18;;;;;;;4.60;2.50;;;12.90;99.90;;;;;;5032063;28;21012;-63
2022/10/01 08:52:52;;;;;;;6.10;2.47;;;12.90;99.90;;;;;;5031551;28;20219;-63
2022/10/01 08:55:22;;;;;;;5.23;2.80;;;13.00;99.90;;;;;;5031749;28;20261;-64
2022/10/01 08:57:53;;;;;;;5.53;2.40;;;13.10;99.90;;;;;;5031084;28;20226;-61
2022/10/01 09:00:20;;;;;;;3.77;3.20;;;13.20;99.90;;;;;;5031518;28;20205;-62
2022/10/01 09:02:49;;;;;;;3.53;2.80;;;13.30;99.90;;;;;;5031543;28;20576;-62
2022/10/01 09:05:23;;;;;;;2.80;2.43;;;13.40;99.90;;;;;;5031532;28;20677;-61
2022/10/01 09:08:00;;;;;;;3.00;2.63;;;13.40;99.90;;;;;;5031315;28;20237;-58
2022/10/01 09:10:39;;;;;;;3.43;2.10;;;13.50;99.90;;;;;;5031158;28;20210;-54
2022/10/01 09:13:38;;;;;;;3.30;2.10;;;13.50;99.90;;;;;;5031741;28;20252;-55
2022/10/01 09:16:13;;;;;;;4.17;2.70;;;13.60;99.90;;;;;;5010701;28;20202;-57
2022/10/01 09:18:51;;;;;;;4.50;2.53;;;13.60;99.90;;;;;;5031445;28;20221;-57
2022/10/01 09:21:21;;;;;;;3.83;2.40;;;13.60;99.90;;;;;;5031082;28;20209;-54
2022/10/01 09:24:01;;;;;;;4.30;2.10;;;13.60;99.90;;;;;;5030811;28;20252;-58
2022/10/01 09:26:28;;;;;;;4.37;2.37;;;13.70;99.90;;;;;;5031207;28;20618;-57
2022/10/01 09:28:58;;;;;;;4.73;1.90;;;13.70;99.90;;;;;;5031399;28;20313;-58
2022/10/01 09:31:29;;;;;;;3.90;2.37;;;13.70;99.90;;;;;;5030939;28;20648;-58
2022/10/01 09:34:02;;;;;;;2.20;2.00;;;13.70;99.90;;;;;;5031619;28;20624;-56
2022/10/01 09:36:36;;;;;;;5.63;2.97;;;13.70;99.90;;;;;;5031052;28;20217;-57
2022/10/01 09:39:13;;;;;;;2.77;2.30;;;13.60;99.90;;;;;;5031175;28;20218;-57
2022/10/01 09:41:39;;;;;;;4.43;2.90;;;13.70;99.90;;;;;;5030851;28;20280;-56
2022/10/01 09:44:15;;;;;;;3.30;2.57;;;13.70;99.90;;;;;;5031234;28;20221;-57
2022/10/01 09:46:42;;;;;;;3.70;2.77;;;13.70;99.90;;;;;;5031246;28;20225;-54
2022/10/01 09:49:17;;;;;;;4.50;3.10;;;13.80;99.90;;;;;;5031580;28;20203;-54
2022/10/01 09:51:48;;;;;;;3.20;2.63;;;13.70;99.90;;;;;;5030888;28;20664;-56
2022/10/01 09:54:19;;;;;;;3.83;3.10;;;13.70;99.90;;;;;;5030941;28;20815;-56
2022/10/01 09:56:49;;;;;;;5.53;3.00;;;13.60;99.90;;;;;;5030917;28;20210;-55
2022/10/01 09:59:22;;;;;;;4.07;2.97;;;13.60;99.90;;;;;;5031056;28;20206;-57
2022/10/01 10:01:53;;;;;;;6.40;3.40;;;13.60;99.90;;;;;;5030722;28;20218;-52
2022/10/01 10:04:23;;;;;;;4.97;3.50;;;13.70;99.90;;;;;;5031276;28;20206;-57
2022/10/01 10:06:50;;;;;;;7.73;3.50;;;13.80;99.90;;;;;;5030593;28;20693;-52
2022/10/01 10:09:20;;;;;;;3.13;2.83;;;13.80;99.90;;;;;;5031006;28;20608;-55
2022/10/01 10:11:48;;;;;;;5.37;2.93;;;13.80;99.90;;;;;;5030711;28;20298;-56
2022/10/01 10:14:24;;;;;;;4.23;2.40;;;13.80;99.90;;;;;;5031160;28;20293;-51
2022/10/01 10:16:51;;;;;;;2.40;2.20;;;13.60;99.90;;;;;;5030507;28;20202;-55
2022/10/01 10:19:24;;;;;;;5.30;2.20;;;13.50;99.90;;;;;;5030398;28;20210;-54
2022/10/01 10:21:52;;;;;;;2.60;1.70;;;13.50;99.90;;;;;;5033233;28;20206;-50
2022/10/01 10:24:26;;;;;;;3.97;1.53;;;13.50;99.90;;;;;;5034051;28;20592;-60
2022/10/01 10:26:55;;;;;;;2.00;1.73;;;13.40;99.90;;;;;;5031056;28;20317;-57
2022/10/01 10:29:26;;;;;;;3.07;1.70;;;13.60;99.90;;;;;;5034773;28;20706;-54
2022/10/01 10:31:54;;;;;;;3.63;1.93;;;13.60;99.90;;;;;;5033678;28;20210;-57
2022/10/01 10:34:27;;;;;;;4.23;2.67;;;13.60;99.90;;;;;;5034221;28;20215;-57
2022/10/01 10:36:58;;;;;;;4.03;3.00;;;13.80;99.90;;;;;;5033974;28;20735;-52
2022/10/01 10:39:28;;;;;;;3.37;2.90;;;13.90;99.90;;;;;;5033775;28;20210;-56
2022/10/01 10:41:55;;;;;;;5.37;3.53;;;14.20;99.90;;;;;;5033854;28;20211;-56
2022/10/01 10:44:24;;;;;;;6.13;3.30;;;14.40;99.90;;;;;;5033274;28;20301;-57
2022/10/01 10:46:53;;;;;;;6.47;3.60;;;14.60;99.90;;;;;;5033808;28;20253;-57
2022/10/01 10:49:25;;;;;;;5.50;3.70;;;14.80;99.90;;;;;;5033770;28;20213;-55
2022/10/01 10:51:53;;;;;;;6.77;4.07;;;14.80;99.90;;;;;;5032396;28;20237;-58
2022/10/01 10:54:24;;;;;;;5.67;3.97;;;14.90;99.90;;;;;;5033918;28;20240;-58
2022/10/01 10:57:01;;;;;;;5.07;3.17;;;15.00;99.90;;;;;;5032838;28;20205;-60
2022/10/01 10:59:32;;;;;;;2.73;2.17;;;15.00;99.90;;;;;;5034028;28;20210;-60
2022/10/01 11:02:00;;;;;;;3.33;2.37;;;15.00;99.90;;;;;;5033405;28;20207;-60
2022/10/01 11:04:37;;;;;;;3.53;2.43;;;15.00;99.90;;;;;;5033799;28;20262;-58
2022/10/01 11:07:04;;;;;;;4.47;3.03;;;15.00;99.90;;;;;;5032976;28;20233;-60
2022/10/01 11:09:45;;;;;;;5.03;3.00;;;15.00;99.90;;;;;;5033413;28;20618;-59
2022/10/01 11:12:21;;;;;;;6.00;3.57;;;15.00;99.90;;;;;;5032932;28;20719;-51
2022/10/01 11:14:59;;;;;;;5.90;3.73;;;15.10;99.90;;;;;;5033668;28;20283;-57
2022/10/01 11:17:54;;;;;;;7.27;3.90;;;15.20;99.90;;;;;;5033203;28;20218;-58
2022/10/01 11:20:35;;;;;;;6.13;3.33;;;15.10;99.90;;;;;;5033506;28;20248;-58
2022/10/01 11:23:26;;;;;;;5.57;4.10;;;15.10;99.90;;;;;;5033437;28;20271;-60
2022/10/01 11:26:05;;;;;;;6.13;4.30;;;15.10;99.90;;;;;;5031804;28;20214;-56
2022/10/01 11:28:43;;;;;;;5.50;4.37;;;15.00;99.90;;;;;;5033072;28;20230;-59
2022/10/01 11:31:21;;;;;;;11.57;4.57;;;15.10;99.90;;;;;;5031557;28;20289;-57
2022/10/01 11:34:02;;;;;;;8.43;4.10;;;15.10;99.90;;;;;;5032840;28;20210;-54
2022/10/01 11:36:40;;;;;;;7.07;4.57;;;15.10;99.90;;;;;;5032842;28;20206;-63
2022/10/01 11:39:11;;;;;;;10.07;4.73;;;15.30;99.90;;;;;;5033069;28;20206;-61
2022/10/01 11:41:43;;;;;;;7.33;4.33;;;15.60;99.90;;;;;;5032900;28;20206;-62
2022/10/01 11:44:14;;;;;;;8.00;4.53;;;15.70;99.90;;;;;;5032717;28;20621;-61
2022/10/01 11:46:49;;;;;;;11.40;4.20;;;15.70;99.90;;;;;;5032373;28;20237;-62
2022/10/01 11:49:26;;;;;;;6.77;3.33;;;15.70;99.90;;;;;;5033086;28;20213;-63
2022/10/01 11:52:03;;;;;;;9.80;3.60;;;15.70;99.90;;;;;;5032261;28;20210;-62
2022/10/01 11:54:34;;;;;;;9.93;3.07;;;15.80;99.90;;;;;;5033374;28;20202;-63
2022/10/01 11:59:55;;;;;;;7.57;3.07;;;15.80;99.90;;;;;;5032713;28;20209;-62
2022/10/01 12:02:27;;;;;;;8.60;3.10;;;15.70;99.90;;;;;;5032310;28;20210;-63
2022/10/01 12:04:59;;;;;;;6.53;2.87;;;15.60;99.90;;;;;;5032751;28;20336;-62
2022/10/01 12:07:32;;;;;;;8.57;3.77;;;15.50;99.90;;;;;;5031676;28;20234;-62
2022/10/01 12:10:12;;;;;;;10.17;3.90;;;15.30;99.90;;;;;;5032261;28;20272;-62
2022/10/01 12:12:46;;;;;;;8.33;3.50;;;15.30;99.90;;;;;;5032106;28;20214;-62
2022/10/01 12:15:19;;;;;;;6.93;4.10;;;15.10;99.90;;;;;;5032279;28;20775;-62
2022/10/01 12:17:51;;;;;;;5.70;3.90;;;15.10;99.90;;;;;;5031654;28;20770;-63
2022/10/01 12:20:23;;;;;;;8.37;5.33;;;15.10;99.90;;;;;;5032074;28;20692;-63
2022/10/01 12:22:53;;;;;;;11.83;4.90;;;15.10;99.90;;;;;;5032135;28;20257;-64
2022/10/01 12:25:24;;;;;;;7.50;4.73;;;15.20;99.90;;;;;;5032291;28;20217;-64
2022/10/01 12:28:01;;;;;;;10.90;5.47;;;15.30;99.90;;;;;;5031608;28;20851;-65
2022/10/01 12:30:31;;;;;;;8.77;4.60;;;15.30;99.90;;;;;;5031649;28;20210;-64
2022/10/01 12:33:12;;;;;;;8.97;4.47;;;15.50;99.90;;;;;;5031722;28;20264;-55
2022/10/01 12:35:54;;;;;;;10.60;4.53;;;15.70;99.90;;;;;;5031991;28;20256;-52
2022/10/01 12:38:36;;;;;;;11.10;5.00;;;15.90;99.90;;;;;;5032051;28;20222;-55
2022/10/01 12:41:14;;;;;;;9.73;5.10;;;16.00;99.90;;;;;;5031217;28;20276;-51
2022/10/01 12:44:07;;;;;;;11.27;5.20;;;16.00;99.90;;;;;;5031582;28;20205;-51
2022/10/01 12:46:44;;;;;;;9.93;4.27;;;16.20;99.90;;;;;;5025405;28;20747;-59
2022/10/01 12:49:21;;;;;;;7.13;3.83;;;16.20;99.90;;;;;;5031192;28;20201;-59
2022/10/01 12:51:51;;;;;;;5.23;3.30;;;16.10;99.90;;;;;;5031381;28;20301;-57
2022/10/01 12:54:33;;;;;;;6.17;3.63;;;16.00;99.90;;;;;;5031428;28;20206;-63
2022/10/01 12:57:05;;;;;;;7.77;3.23;;;15.90;99.90;;;;;;5031342;28;20705;-61
2022/10/01 12:59:48;;;;;;;11.40;3.70;;;15.80;99.90;;;;;;5031765;28;20280;-59
2022/10/01 13:02:30;;;;;;;7.67;3.13;;;15.70;99.90;;;;;;5031136;28;20552;-61
2022/10/01 13:05:15;;;;;;;10.13;3.03;;;15.70;99.90;;;;;;5031466;28;20685;-62
2022/10/01 13:07:55;;;;;;;10.93;2.60;;;15.70;99.90;;;;;;5031082;28;20230;-57